Annapolis, WA

9:17 AM PDT on August 31, 2016 (GMT -0700)
Boomers Landing | | Change Station

Elev 233 ft 47.51 °N, 122.66 °W | Updated 13 seconds ago

Mostly Cloudy
Mostly Cloudy
60.6 °F
Feels Like 60.6 °F
N
0.0
Wind Variable Wind from SSE
Gusts 0.0 mph

Today
High -- | Low -- °F
--% Chance of Precip.
Yesterday
High -- | Low -- °F
Precip. -- in
Pressure 30.00 in
Visibility 10.0 miles
Clouds Mostly Cloudy 2700 ft
Mostly Cloudy 7000 ft
Dew Point 58 °F
Humidity 91%
Rainfall 0.00 in
Snow Depth Not available.
6:28 AM 7:51 PM
Waning Crescent, 1% visible
METAR KPWT 311615Z AUTO 20008KT 10SM BKN027 BKN070 15/14 A3000 RMK AO1
Pressure 30.00 in
Visibility 10.0 miles
Clouds Mostly Cloudy 2700 ft
Mostly Cloudy 7000 ft
Dew Point 58 °F
Humidity 91%
Rainfall 0.00 in
Snow Depth Not available.
6:28 AM 7:51 PM
Waning Crescent, 1% visible
METAR KPWT 311615Z AUTO 20008KT 10SM BKN027 BKN070 15/14 A3000 RMK AO1

10-Day Weather Forecast

Almanac

Astronomy

Aug. 31, 2016 Rise Set
Actual Time
Civil Twilight
Nautical Twilight
Astronomical Twilight
Moon
Length of Visible Light
Length of Day
Tomorrow will be .
, % of the Moon is Illuminated

Today's Extremes

State Highs State Lows

Community

WunderPhotos

Upload Photos

1,936,105 photos uploaded!

WunderBlog® & News

Nearby

Air Quality

  Air Quality AQ Index Pollutant
Not available.

Snow Depth

Station Depth Elevation

Earthquake Activity

City Distance Mag. Time & Date
Minimum magnitude displayed is 2.5.

Coastal Water Temperatures

Place Temperature

Stations

Nearby Weather Stations

Station Location Temp. Windchill Dew Point Humidity Wind Precip. Elev Updated Type
                   

Watches & Warnings

There are currently no watches in effect.